sensor_id;sensor_type;location;lat;lon;timestamp;pressure;altitude;pressure_sealevel;temperature;humidity
33795;BME280;51430;52.242;21.118;2023-03-19T00:01:18;100526.73;;;7.34;52.77
33795;BME280;51430;52.242;21.118;2023-03-19T00:04:08;100523.20;;;7.32;52.74
33795;BME280;51430;52.242;21.118;2023-03-19T00:06:55;100523.08;;;7.28;52.65
33795;BME280;51430;52.242;21.118;2023-03-19T00:09:43;100522.44;;;7.22;52.96
33795;BME280;51430;52.242;21.118;2023-03-19T00:12:30;100512.89;;;7.14;53.39
33795;BME280;51430;52.242;21.118;2023-03-19T00:15:16;100515.72;;;7.10;53.46
33795;BME280;51430;52.242;21.118;2023-03-19T00:18:03;100518.80;;;6.99;53.67
33795;BME280;51430;52.242;21.118;2023-03-19T00:20:51;100513.91;;;6.96;53.91
33795;BME280;51430;52.242;21.118;2023-03-19T00:23:38;100515.05;;;6.95;54.03
33795;BME280;51430;52.242;21.118;2023-03-19T00:26:26;100510.73;;;6.89;54.26
33795;BME280;51430;52.242;21.118;2023-03-19T00:29:13;100505.44;;;6.87;54.12
33795;BME280;51430;52.242;21.118;2023-03-19T00:32:00;100503.45;;;6.77;54.58
33795;BME280;51430;52.242;21.118;2023-03-19T00:34:47;100503.17;;;6.73;54.73
33795;BME280;51430;52.242;21.118;2023-03-19T00:37:34;100497.31;;;6.72;54.71
33795;BME280;51430;52.242;21.118;2023-03-19T00:40:21;100500.17;;;6.68;55.03
33795;BME280;51430;52.242;21.118;2023-03-19T00:43:08;100504.36;;;6.58;55.15
33795;BME280;51430;52.242;21.118;2023-03-19T00:45:55;100502.36;;;6.54;55.39
33795;BME280;51430;52.242;21.118;2023-03-19T00:48:42;100501.17;;;6.59;55.21
33795;BME280;51430;52.242;21.118;2023-03-19T00:51:28;100497.14;;;6.48;55.47
33795;BME280;51430;52.242;21.118;2023-03-19T00:54:15;100494.88;;;6.51;55.56
33795;BME280;51430;52.242;21.118;2023-03-19T00:57:02;100492.65;;;6.51;55.55
33795;BME280;51430;52.242;21.118;2023-03-19T00:59:48;100494.19;;;6.48;55.69
33795;BME280;51430;52.242;21.118;2023-03-19T01:02:35;100493.45;;;6.43;55.87
33795;BME280;51430;52.242;21.118;2023-03-19T01:05:22;100494.36;;;6.45;55.73
33795;BME280;51430;52.242;21.118;2023-03-19T01:08:08;100492.67;;;6.42;55.99
33795;BME280;51430;52.242;21.118;2023-03-19T01:10:56;100492.44;;;6.40;55.96
33795;BME280;51430;52.242;21.118;2023-03-19T01:13:43;100497.34;;;6.45;55.75
33795;BME280;51430;52.242;21.118;2023-03-19T01:16:30;100497.06;;;6.43;55.69
33795;BME280;51430;52.242;21.118;2023-03-19T01:19:16;100497.90;;;6.32;56.11
33795;BME280;51430;52.242;21.118;2023-03-19T01:22:03;100497.77;;;6.28;56.39
33795;BME280;51430;52.242;21.118;2023-03-19T01:24:50;100493.19;;;6.30;56.24
33795;BME280;51430;52.242;21.118;2023-03-19T01:27:38;100497.86;;;6.36;56.04
33795;BME280;51430;52.242;21.118;2023-03-19T01:30:25;100497.27;;;6.31;56.18
33795;BME280;51430;52.242;21.118;2023-03-19T01:33:13;100504.30;;;6.32;56.09
33795;BME280;51430;52.242;21.118;2023-03-19T01:36:00;100504.92;;;6.27;56.38
33795;BME280;51430;52.242;21.118;2023-03-19T01:38:51;100509.27;;;6.27;56.35
33795;BME280;51430;52.242;21.118;2023-03-19T01:41:37;100513.15;;;6.29;56.33
33795;BME280;51430;52.242;21.118;2023-03-19T01:44:25;100509.83;;;6.23;56.42
33795;BME280;51430;52.242;21.118;2023-03-19T01:47:23;100512.38;;;6.21;56.62
33795;BME280;51430;52.242;21.118;2023-03-19T01:50:23;100513.95;;;6.23;56.70
33795;BME280;51430;52.242;21.118;2023-03-19T01:53:12;100508.41;;;6.23;56.60
33795;BME280;51430;52.242;21.118;2023-03-19T01:56:13;100506.89;;;6.23;56.64
33795;BME280;51430;52.242;21.118;2023-03-19T01:59:11;100507.91;;;6.20;56.63
33795;BME280;51430;52.242;21.118;2023-03-19T02:04:56;100501.98;;;6.12;57.10
33795;BME280;51430;52.242;21.118;2023-03-19T02:07:44;100504.01;;;6.06;57.41
33795;BME280;51430;52.242;21.118;2023-03-19T02:10:32;100505.02;;;6.07;57.41
33795;BME280;51430;52.242;21.118;2023-03-19T02:13:21;100502.77;;;6.07;57.46
33795;BME280;51430;52.242;21.118;2023-03-19T02:16:08;100499.07;;;6.05;57.51
33795;BME280;51430;52.242;21.118;2023-03-19T02:18:56;100499.73;;;6.05;57.57
33795;BME280;51430;52.242;21.118;2023-03-19T02:21:43;100500.93;;;6.03;57.66
33795;BME280;51430;52.242;21.118;2023-03-19T02:24:38;100493.52;;;6.02;57.67
33795;BME280;51430;52.242;21.118;2023-03-19T02:27:27;100490.29;;;5.91;58.09
33795;BME280;51430;52.242;21.118;2023-03-19T02:30:25;100492.28;;;5.96;58.15
33795;BME280;51430;52.242;21.118;2023-03-19T02:33:14;100491.55;;;5.97;57.92
33795;BME280;51430;52.242;21.118;2023-03-19T02:36:03;100493.85;;;5.92;58.11
33795;BME280;51430;52.242;21.118;2023-03-19T02:38:51;100496.36;;;5.85;58.32
33795;BME280;51430;52.242;21.118;2023-03-19T02:46:02;100505.26;;;5.70;58.90
33795;BME280;51430;52.242;21.118;2023-03-19T02:48:49;100509.20;;;5.71;58.93
33795;BME280;51430;52.242;21.118;2023-03-19T02:56:00;100507.48;;;5.58;59.38
33795;BME280;51430;52.242;21.118;2023-03-19T02:58:46;100514.83;;;5.63;59.41
33795;BME280;51430;52.242;21.118;2023-03-19T03:05:47;100511.48;;;5.64;59.21
33795;BME280;51430;52.242;21.118;2023-03-19T03:08:34;100512.14;;;5.71;59.01
33795;BME280;51430;52.242;21.118;2023-03-19T03:11:22;100513.29;;;5.69;59.11
33795;BME280;51430;52.242;21.118;2023-03-19T03:14:09;100512.58;;;5.66;59.24
33795;BME280;51430;52.242;21.118;2023-03-19T03:16:56;100512.58;;;5.60;59.38
33795;BME280;51430;52.242;21.118;2023-03-19T03:19:44;100513.93;;;5.60;59.49
33795;BME280;51430;52.242;21.118;2023-03-19T03:22:31;100508.80;;;5.56;59.49
33795;BME280;51430;52.242;21.118;2023-03-19T03:25:18;100503.41;;;5.53;59.73
33795;BME280;51430;52.242;21.118;2023-03-19T03:28:04;100500.70;;;5.46;59.94
33795;BME280;51430;52.242;21.118;2023-03-19T03:31:00;100500.35;;;5.39;60.17
33795;BME280;51430;52.242;21.118;2023-03-19T03:33:47;100502.00;;;5.37;60.33
33795;BME280;51430;52.242;21.118;2023-03-19T03:36:34;100503.34;;;5.38;60.28
33795;BME280;51430;52.242;21.118;2023-03-19T03:39:22;100504.05;;;5.38;60.16
33795;BME280;51430;52.242;21.118;2023-03-19T03:42:09;100503.06;;;5.40;60.39
33795;BME280;51430;52.242;21.118;2023-03-19T03:44:55;100504.95;;;5.40;60.40
33795;BME280;51430;52.242;21.118;2023-03-19T03:47:42;100500.96;;;5.34;60.43
33795;BME280;51430;52.242;21.118;2023-03-19T03:50:29;100495.94;;;5.40;60.36
33795;BME280;51430;52.242;21.118;2023-03-19T03:53:15;100499.59;;;5.37;60.47
33795;BME280;51430;52.242;21.118;2023-03-19T03:56:02;100493.92;;;5.40;60.47
33795;BME280;51430;52.242;21.118;2023-03-19T03:58:49;100492.05;;;5.32;60.76
33795;BME280;51430;52.242;21.118;2023-03-19T04:01:36;100492.89;;;5.36;60.73
33795;BME280;51430;52.242;21.118;2023-03-19T04:04:23;100491.15;;;5.33;60.60
33795;BME280;51430;52.242;21.118;2023-03-19T04:07:10;100488.66;;;5.24;61.11
33795;BME280;51430;52.242;21.118;2023-03-19T04:09:56;100489.04;;;5.31;60.94
33795;BME280;51430;52.242;21.118;2023-03-19T04:12:44;100492.45;;;5.21;61.23
33795;BME280;51430;52.242;21.118;2023-03-19T04:15:34;100488.86;;;5.21;61.24
33795;BME280;51430;52.242;21.118;2023-03-19T04:18:21;100490.01;;;5.19;61.37
33795;BME280;51430;52.242;21.118;2023-03-19T04:21:08;100493.76;;;5.13;61.45
33795;BME280;51430;52.242;21.118;2023-03-19T04:23:54;100490.70;;;5.05;61.79
33795;BME280;51430;52.242;21.118;2023-03-19T04:26:41;100488.67;;;5.01;62.00
33795;BME280;51430;52.242;21.118;2023-03-19T04:29:28;100487.15;;;4.97;62.19
33795;BME280;51430;52.242;21.118;2023-03-19T04:32:15;100485.80;;;5.00;62.04
33795;BME280;51430;52.242;21.118;2023-03-19T04:35:02;100483.98;;;4.98;62.08
33795;BME280;51430;52.242;21.118;2023-03-19T04:37:49;100482.92;;;5.02;61.95
33795;BME280;51430;52.242;21.118;2023-03-19T04:40:36;100479.45;;;4.96;62.11
33795;BME280;51430;52.242;21.118;2023-03-19T04:43:23;100481.77;;;4.91;62.29
33795;BME280;51430;52.242;21.118;2023-03-19T04:46:09;100486.15;;;4.93;62.24
33795;BME280;51430;52.242;21.118;2023-03-19T04:48:57;100485.34;;;4.85;62.49
33795;BME280;51430;52.242;21.118;2023-03-19T04:51:45;100486.45;;;4.81;62.50
33795;BME280;51430;52.242;21.118;2023-03-19T04:54:31;100488.39;;;4.83;62.63
33795;BME280;51430;52.242;21.118;2023-03-19T04:57:19;100490.06;;;4.84;62.49
33795;BME280;51430;52.242;21.118;2023-03-19T05:00:07;100484.89;;;4.88;62.41
33795;BME280;51430;52.242;21.118;2023-03-19T05:02:54;100482.45;;;4.85;62.47
33795;BME280;51430;52.242;21.118;2023-03-19T05:05:42;100482.52;;;4.86;62.36
33795;BME280;51430;52.242;21.118;2023-03-19T05:08:28;100484.98;;;4.93;62.27
33795;BME280;51430;52.242;21.118;2023-03-19T05:11:15;100486.70;;;4.86;62.45
33795;BME280;51430;52.242;21.118;2023-03-19T05:14:20;100486.42;;;4.91;62.28
33795;BME280;51430;52.242;21.118;2023-03-19T05:17:07;100491.27;;;4.81;62.60
33795;BME280;51430;52.242;21.118;2023-03-19T05:19:56;100490.25;;;4.84;62.43
33795;BME280;51430;52.242;21.118;2023-03-19T05:22:43;100495.52;;;4.86;62.39
33795;BME280;51430;52.242;21.118;2023-03-19T05:25:30;100501.02;;;4.83;62.50
33795;BME280;51430;52.242;21.118;2023-03-19T05:28:16;100504.90;;;4.98;62.32
33795;BME280;51430;52.242;21.118;2023-03-19T05:31:03;100508.46;;;5.16;61.60
33795;BME280;51430;52.242;21.118;2023-03-19T05:33:50;100512.32;;;5.41;61.04
33795;BME280;51430;52.242;21.118;2023-03-19T05:36:37;100513.75;;;5.93;59.71
33795;BME280;51430;52.242;21.118;2023-03-19T05:39:24;100515.93;;;6.32;57.97
33795;BME280;51430;52.242;21.118;2023-03-19T05:42:11;100515.58;;;6.83;56.48
33795;BME280;51430;52.242;21.118;2023-03-19T05:44:58;100518.21;;;7.17;55.23
33795;BME280;51430;52.242;21.118;2023-03-19T05:47:46;100515.16;;;7.10;55.23
33795;BME280;51430;52.242;21.118;2023-03-19T05:50:34;100519.52;;;7.16;55.11
33795;BME280;51430;52.242;21.118;2023-03-19T05:53:22;100514.69;;;7.77;53.64
33795;BME280;51430;52.242;21.118;2023-03-19T05:56:09;100516.73;;;8.31;52.14
33795;BME280;51430;52.242;21.118;2023-03-19T05:58:56;100517.23;;;8.20;52.25
33795;BME280;51430;52.242;21.118;2023-03-19T06:01:43;100516.11;;;8.11;52.21
33795;BME280;51430;52.242;21.118;2023-03-19T06:04:31;100510.23;;;8.32;52.06
33795;BME280;51430;52.242;21.118;2023-03-19T06:07:19;100511.24;;;8.67;51.26
33795;BME280;51430;52.242;21.118;2023-03-19T06:10:06;100508.91;;;9.27;49.49
33795;BME280;51430;52.242;21.118;2023-03-19T06:12:54;100517.23;;;9.53;48.76
33795;BME280;51430;52.242;21.118;2023-03-19T06:15:42;100517.00;;;9.59;48.34
33795;BME280;51430;52.242;21.118;2023-03-19T06:18:30;100515.16;;;10.02;47.59
33795;BME280;51430;52.242;21.118;2023-03-19T06:21:17;100519.64;;;10.30;46.72
33795;BME280;51430;52.242;21.118;2023-03-19T06:24:05;100521.10;;;10.50;46.34
33795;BME280;51430;52.242;21.118;2023-03-19T06:26:53;100525.96;;;10.62;46.14
33795;BME280;51430;52.242;21.118;2023-03-19T06:29:43;100526.77;;;10.46;46.26
33795;BME280;51430;52.242;21.118;2023-03-19T06:32:30;100530.71;;;10.47;46.28
33795;BME280;51430;52.242;21.118;2023-03-19T06:35:18;100531.77;;;10.36;46.40
33795;BME280;51430;52.242;21.118;2023-03-19T06:38:05;100539.02;;;10.65;46.16
33795;BME280;51430;52.242;21.118;2023-03-19T06:40:54;100535.80;;;10.89;45.65
33795;BME280;51430;52.242;21.118;2023-03-19T06:43:41;100534.11;;;11.62;44.39
33795;BME280;51430;52.242;21.118;2023-03-19T06:46:28;100536.87;;;11.98;43.38
33795;BME280;51430;52.242;21.118;2023-03-19T06:49:16;100533.25;;;12.19;42.57
33795;BME280;51430;52.242;21.118;2023-03-19T06:52:04;100534.85;;;12.42;42.33
33795;BME280;51430;52.242;21.118;2023-03-19T06:54:52;100533.66;;;12.78;40.99
33795;BME280;51430;52.242;21.118;2023-03-19T06:57:39;100540.09;;;12.89;40.77
33795;BME280;51430;52.242;21.118;2023-03-19T07:00:27;100537.16;;;13.28;39.92
33795;BME280;51430;52.242;21.118;2023-03-19T07:03:15;100543.23;;;12.51;40.84
33795;BME280;51430;52.242;21.118;2023-03-19T07:06:02;100547.08;;;11.90;42.13
33795;BME280;51430;52.242;21.118;2023-03-19T07:08:48;100541.17;;;11.56;43.12
33795;BME280;51430;52.242;21.118;2023-03-19T07:13:38;100543.99;;;12.03;42.41
33795;BME280;51430;52.242;21.118;2023-03-19T07:16:26;100544.92;;;11.75;43.12
33795;BME280;51430;52.242;21.118;2023-03-19T07:19:13;100540.57;;;11.59;43.50
33795;BME280;51430;52.242;21.118;2023-03-19T07:22:00;100540.63;;;11.31;44.03
33795;BME280;51430;52.242;21.118;2023-03-19T07:24:47;100544.27;;;11.27;44.31
33795;BME280;51430;52.242;21.118;2023-03-19T07:27:35;100540.67;;;10.87;45.64
33795;BME280;51430;52.242;21.118;2023-03-19T07:30:22;100543.14;;;10.73;45.80
33795;BME280;51430;52.242;21.118;2023-03-19T07:33:10;100545.63;;;11.02;45.81
33795;BME280;51430;52.242;21.118;2023-03-19T07:37:47;100548.56;;;11.91;44.33
33795;BME280;51430;52.242;21.118;2023-03-19T07:40:37;100552.71;;;12.16;43.74
33795;BME280;51430;52.242;21.118;2023-03-19T07:43:31;100553.91;;;12.17;43.58
33795;BME280;51430;52.242;21.118;2023-03-19T07:46:18;100556.08;;;12.26;43.63
33795;BME280;51430;52.242;21.118;2023-03-19T07:49:05;100547.49;;;12.33;43.78
33795;BME280;51430;52.242;21.118;2023-03-19T07:52:08;100540.55;;;12.45;43.53
33795;BME280;51430;52.242;21.118;2023-03-19T07:56:06;100539.47;;;13.36;42.01
33795;BME280;51430;52.242;21.118;2023-03-19T08:00:09;100536.64;;;13.99;40.45
33795;BME280;51430;52.242;21.118;2023-03-19T08:03:42;100539.90;;;14.18;40.38
33795;BME280;51430;52.242;21.118;2023-03-19T08:06:29;100541.73;;;14.37;39.86
33795;BME280;51430;52.242;21.118;2023-03-19T08:09:16;100537.90;;;14.70;39.45
33795;BME280;51430;52.242;21.118;2023-03-19T08:12:04;100538.49;;;14.59;39.67
33795;BME280;51430;52.242;21.118;2023-03-19T08:14:52;100539.11;;;15.38;38.72
33795;BME280;51430;52.242;21.118;2023-03-19T08:18:07;100542.56;;;15.54;38.01
33795;BME280;51430;52.242;21.118;2023-03-19T08:21:27;100543.16;;;15.66;37.40
33795;BME280;51430;52.242;21.118;2023-03-19T08:25:26;100539.92;;;16.20;36.79
33795;BME280;51430;52.242;21.118;2023-03-19T08:29:26;100539.52;;;16.28;36.43
33795;BME280;51430;52.242;21.118;2023-03-19T08:32:14;100540.88;;;16.14;36.44
33795;BME280;51430;52.242;21.118;2023-03-19T08:35:03;100541.27;;;16.14;36.29
33795;BME280;51430;52.242;21.118;2023-03-19T08:37:52;100537.69;;;15.89;36.50
33795;BME280;51430;52.242;21.118;2023-03-19T08:40:40;100533.29;;;15.37;37.57
33795;BME280;51430;52.242;21.118;2023-03-19T08:43:39;100531.97;;;16.22;36.50
33795;BME280;51430;52.242;21.118;2023-03-19T08:47:36;100527.65;;;16.46;35.76
33795;BME280;51430;52.242;21.118;2023-03-19T08:51:54;100529.04;;;16.77;35.83
33795;BME280;51430;52.242;21.118;2023-03-19T08:55:19;100527.55;;;16.66;35.65
33795;BME280;51430;52.242;21.118;2023-03-19T08:58:50;100531.30;;;16.65;35.80
33795;BME280;51430;52.242;21.118;2023-03-19T09:02:48;100535.23;;;16.82;35.38
33795;BME280;51430;52.242;21.118;2023-03-19T09:06:49;100533.83;;;16.92;35.50
33795;BME280;51430;52.242;21.118;2023-03-19T09:10:44;100531.94;;;17.16;35.11
33795;BME280;51430;52.242;21.118;2023-03-19T09:14:00;100532.43;;;16.94;34.87
33795;BME280;51430;52.242;21.118;2023-03-19T09:18:18;100530.72;;;16.64;35.77
33795;BME280;51430;52.242;21.118;2023-03-19T09:21:39;100530.04;;;17.11;35.40
33795;BME280;51430;52.242;21.118;2023-03-19T09:25:17;100531.28;;;17.56;35.08
33795;BME280;51430;52.242;21.118;2023-03-19T09:28:50;100532.56;;;17.12;35.51
33795;BME280;51430;52.242;21.118;2023-03-19T09:44:02;100518.09;;;18.77;33.51
33795;BME280;51430;52.242;21.118;2023-03-19T09:47:28;100517.84;;;20.17;31.92
33795;BME280;51430;52.242;21.118;2023-03-19T09:51:47;100514.30;;;21.03;30.92
33795;BME280;51430;52.242;21.118;2023-03-19T10:05:50;100504.21;;;21.19;30.50
33795;BME280;51430;52.242;21.118;2023-03-19T10:13:10;100503.39;;;21.32;30.28
33795;BME280;51430;52.242;21.118;2023-03-19T10:16:37;100510.74;;;21.65;29.36
33795;BME280;51430;52.242;21.118;2023-03-19T10:19:55;100508.84;;;21.38;29.28
33795;BME280;51430;52.242;21.118;2023-03-19T10:34:29;100505.64;;;19.93;30.97
33795;BME280;51430;52.242;21.118;2023-03-19T10:37:36;100501.70;;;20.54;30.63
33795;BME280;51430;52.242;21.118;2023-03-19T10:41:43;100503.67;;;20.83;30.07
33795;BME280;51430;52.242;21.118;2023-03-19T10:55:23;100504.91;;;21.87;28.85
33795;BME280;51430;52.242;21.118;2023-03-19T10:58:33;100503.77;;;22.00;28.26
33795;BME280;51430;52.242;21.118;2023-03-19T11:58:42;100441.30;;;19.96;29.95
33795;BME280;51430;52.242;21.118;2023-03-19T12:38:17;100416.48;;;21.91;28.52
33795;BME280;51430;52.242;21.118;2023-03-19T12:41:10;100417.73;;;22.59;27.31
33795;BME280;51430;52.242;21.118;2023-03-19T12:44:39;100420.02;;;21.27;28.12
33795;BME280;51430;52.242;21.118;2023-03-19T12:47:34;100417.04;;;21.74;28.17
33795;BME280;51430;52.242;21.118;2023-03-19T12:52:54;100409.44;;;21.84;27.86
33795;BME280;51430;52.242;21.118;2023-03-19T12:55:53;100409.83;;;21.53;28.51
33795;BME280;51430;52.242;21.118;2023-03-19T13:01:47;100407.48;;;20.78;29.10
33795;BME280;51430;52.242;21.118;2023-03-19T13:07:19;100399.25;;;21.07;29.07
33795;BME280;51430;52.242;21.118;2023-03-19T13:11:09;100398.53;;;21.11;28.64
33795;BME280;51430;52.242;21.118;2023-03-19T13:14:35;100393.73;;;20.54;29.15
33795;BME280;51430;52.242;21.118;2023-03-19T13:17:29;100388.99;;;20.29;29.46
33795;BME280;51430;52.242;21.118;2023-03-19T13:20:49;100390.48;;;20.48;29.25
33795;BME280;51430;52.242;21.118;2023-03-19T13:23:48;100380.19;;;20.47;29.55
33795;BME280;51430;52.242;21.118;2023-03-19T13:26:39;100376.61;;;20.45;29.67
33795;BME280;51430;52.242;21.118;2023-03-19T13:29:33;100377.14;;;21.12;28.91
33795;BME280;51430;52.242;21.118;2023-03-19T13:32:35;100377.66;;;21.09;28.89
33795;BME280;51430;52.242;21.118;2023-03-19T13:55:27;100373.18;;;20.77;29.39
33795;BME280;51430;52.242;21.118;2023-03-19T13:58:53;100375.27;;;20.60;29.44
33795;BME280;51430;52.242;21.118;2023-03-19T14:01:49;100373.48;;;20.73;29.54
33795;BME280;51430;52.242;21.118;2023-03-19T14:04:37;100372.09;;;21.01;29.03
33795;BME280;51430;52.242;21.118;2023-03-19T14:07:26;100369.87;;;21.27;28.71
33795;BME280;51430;52.242;21.118;2023-03-19T14:10:23;100368.52;;;21.04;28.97
33795;BME280;51430;52.242;21.118;2023-03-19T14:13:25;100366.70;;;20.12;29.49
33795;BME280;51430;52.242;21.118;2023-03-19T14:16:25;100367.91;;;19.65;30.33
33795;BME280;51430;52.242;21.118;2023-03-19T14:19:19;100367.26;;;19.54;30.61
33795;BME280;51430;52.242;21.118;2023-03-19T14:22:37;100368.55;;;19.46;30.71
33795;BME280;51430;52.242;21.118;2023-03-19T14:25:27;100369.16;;;19.44;30.88
33795;BME280;51430;52.242;21.118;2023-03-19T14:28:40;100368.98;;;19.05;31.36
33795;BME280;51430;52.242;21.118;2023-03-19T14:31:53;100363.17;;;19.21;31.40
33795;BME280;51430;52.242;21.118;2023-03-19T14:34:55;100358.38;;;20.32;30.28
33795;BME280;51430;52.242;21.118;2023-03-19T14:37:47;100356.55;;;21.26;29.00
33795;BME280;51430;52.242;21.118;2023-03-19T14:40:43;100356.48;;;21.21;28.85
33795;BME280;51430;52.242;21.118;2023-03-19T14:56:30;100350.41;;;20.14;30.01
33795;BME280;51430;52.242;21.118;2023-03-19T14:59:35;100357.30;;;20.62;29.93
33795;BME280;51430;52.242;21.118;2023-03-19T15:02:33;100357.08;;;20.70;29.45
33795;BME280;51430;52.242;21.118;2023-03-19T15:05:30;100357.79;;;20.89;29.24
33795;BME280;51430;52.242;21.118;2023-03-19T15:08:22;100348.73;;;20.70;29.56
33795;BME280;51430;52.242;21.118;2023-03-19T15:17:09;100336.95;;;20.09;30.31
33795;BME280;51430;52.242;21.118;2023-03-19T15:20:02;100335.19;;;19.53;31.12
33795;BME280;51430;52.242;21.118;2023-03-19T15:23:02;100333.79;;;19.31;31.62
33795;BME280;51430;52.242;21.118;2023-03-19T15:26:05;100332.64;;;18.81;32.12
33795;BME280;51430;52.242;21.118;2023-03-19T15:29:00;100333.80;;;18.38;32.99
33795;BME280;51430;52.242;21.118;2023-03-19T15:31:52;100336.34;;;18.09;33.19
33795;BME280;51430;52.242;21.118;2023-03-19T15:34:55;100335.61;;;17.87;33.60
33795;BME280;51430;52.242;21.118;2023-03-19T15:37:52;100329.14;;;17.72;33.87
33795;BME280;51430;52.242;21.118;2023-03-19T15:40:50;100329.17;;;17.63;34.20
33795;BME280;51430;52.242;21.118;2023-03-19T15:43:39;100334.42;;;17.54;34.29
33795;BME280;51430;52.242;21.118;2023-03-19T15:46:31;100333.10;;;17.44;34.37
33795;BME280;51430;52.242;21.118;2023-03-19T15:49:29;100331.16;;;17.37;34.83
33795;BME280;51430;52.242;21.118;2023-03-19T15:52:19;100334.86;;;17.37;35.27
33795;BME280;51430;52.242;21.118;2023-03-19T15:55:07;100336.48;;;17.40;35.34
33795;BME280;51430;52.242;21.118;2023-03-19T15:58:03;100339.71;;;17.33;35.16
33795;BME280;51430;52.242;21.118;2023-03-19T16:00:54;100340.42;;;17.21;35.35
33795;BME280;51430;52.242;21.118;2023-03-19T16:12:38;100341.69;;;16.63;36.69
33795;BME280;51430;52.242;21.118;2023-03-19T16:15:44;100349.72;;;16.52;36.83
33795;BME280;51430;52.242;21.118;2023-03-19T16:18:50;100349.80;;;16.51;36.96
33795;BME280;51430;52.242;21.118;2023-03-19T16:21:40;100347.64;;;16.48;37.63
33795;BME280;51430;52.242;21.118;2023-03-19T16:24:34;100349.02;;;16.47;38.12
33795;BME280;51430;52.242;21.118;2023-03-19T16:27:35;100355.52;;;16.35;39.01
33795;BME280;51430;52.242;21.118;2023-03-19T16:30:25;100357.05;;;16.23;39.33
33795;BME280;51430;52.242;21.118;2023-03-19T16:33:13;100358.16;;;16.08;39.63
33795;BME280;51430;52.242;21.118;2023-03-19T16:36:01;100358.69;;;15.91;40.01
33795;BME280;51430;52.242;21.118;2023-03-19T16:39:19;100366.91;;;15.77;40.35
33795;BME280;51430;52.242;21.118;2023-03-19T16:48:02;100362.23;;;15.18;41.11
33795;BME280;51430;52.242;21.118;2023-03-19T16:50:52;100366.88;;;15.06;42.03
33795;BME280;51430;52.242;21.118;2023-03-19T16:53:38;100372.42;;;14.94;42.06
33795;BME280;51430;52.242;21.118;2023-03-19T16:56:28;100373.10;;;14.77;42.27
33795;BME280;51430;52.242;21.118;2023-03-19T17:08:53;100375.16;;;13.92;43.64
33795;BME280;51430;52.242;21.118;2023-03-19T17:11:41;100376.52;;;13.81;44.31
33795;BME280;51430;52.242;21.118;2023-03-19T17:14:29;100378.80;;;13.83;44.25
33795;BME280;51430;52.242;21.118;2023-03-19T17:17:18;100376.65;;;13.77;44.49
33795;BME280;51430;52.242;21.118;2023-03-19T17:20:18;100378.32;;;13.72;44.83
33795;BME280;51430;52.242;21.118;2023-03-19T17:23:12;100380.09;;;13.68;45.83
33795;BME280;51430;52.242;21.118;2023-03-19T17:26:23;100378.77;;;13.63;44.85
33795;BME280;51430;52.242;21.118;2023-03-19T17:29:13;100378.65;;;13.51;45.62
33795;BME280;51430;52.242;21.118;2023-03-19T17:32:02;100375.27;;;13.47;45.64
33795;BME280;51430;52.242;21.118;2023-03-19T17:34:50;100377.71;;;13.40;45.72
33795;BME280;51430;52.242;21.118;2023-03-19T17:37:37;100382.35;;;13.37;46.26
33795;BME280;51430;52.242;21.118;2023-03-19T17:40:33;100384.06;;;13.31;46.54
33795;BME280;51430;52.242;21.118;2023-03-19T17:43:20;100380.80;;;13.18;46.46
33795;BME280;51430;52.242;21.118;2023-03-19T17:46:11;100378.84;;;13.09;46.98
33795;BME280;51430;52.242;21.118;2023-03-19T17:49:00;100375.05;;;13.04;47.62
33795;BME280;51430;52.242;21.118;2023-03-19T17:51:50;100369.41;;;12.98;47.37
33795;BME280;51430;52.242;21.118;2023-03-19T17:54:37;100369.36;;;12.89;47.47
33795;BME280;51430;52.242;21.118;2023-03-19T17:57:24;100365.73;;;12.78;47.84
33795;BME280;51430;52.242;21.118;2023-03-19T18:00:13;100365.81;;;12.77;48.05
33795;BME280;51430;52.242;21.118;2023-03-19T18:03:12;100362.95;;;12.70;48.32
33795;BME280;51430;52.242;21.118;2023-03-19T18:05:59;100360.64;;;12.60;48.59
33795;BME280;51430;52.242;21.118;2023-03-19T18:08:51;100363.08;;;12.56;48.82
33795;BME280;51430;52.242;21.118;2023-03-19T18:11:38;100364.84;;;12.53;49.00
33795;BME280;51430;52.242;21.118;2023-03-19T18:14:25;100362.17;;;12.46;49.00
33795;BME280;51430;52.242;21.118;2023-03-19T18:17:16;100356.17;;;12.40;49.24
33795;BME280;51430;52.242;21.118;2023-03-19T18:20:10;100352.21;;;12.37;49.57
33795;BME280;51430;52.242;21.118;2023-03-19T18:23:04;100351.69;;;12.37;49.98
33795;BME280;51430;52.242;21.118;2023-03-19T18:25:51;100348.84;;;12.34;50.13
33795;BME280;51430;52.242;21.118;2023-03-19T18:28:38;100350.58;;;12.34;50.66
33795;BME280;51430;52.242;21.118;2023-03-19T18:31:25;100349.56;;;12.34;50.98
33795;BME280;51430;52.242;21.118;2023-03-19T18:34:17;100351.77;;;12.24;51.29
33795;BME280;51430;52.242;21.118;2023-03-19T18:37:04;100355.26;;;12.18;51.22
33795;BME280;51430;52.242;21.118;2023-03-19T18:40:01;100356.36;;;12.09;51.05
33795;BME280;51430;52.242;21.118;2023-03-19T18:43:03;100355.38;;;11.85;51.54
33795;BME280;51430;52.242;21.118;2023-03-19T18:45:52;100358.25;;;11.53;52.50
33795;BME280;51430;52.242;21.118;2023-03-19T18:48:40;100360.63;;;11.47;52.80
33795;BME280;51430;52.242;21.118;2023-03-19T18:51:27;100355.30;;;11.51;52.28
33795;BME280;51430;52.242;21.118;2023-03-19T18:54:14;100357.88;;;11.55;51.97
33795;BME280;51430;52.242;21.118;2023-03-19T18:57:01;100359.17;;;11.57;51.79
33795;BME280;51430;52.242;21.118;2023-03-19T18:59:48;100359.09;;;11.55;51.81
33795;BME280;51430;52.242;21.118;2023-03-19T19:02:35;100351.09;;;11.57;51.97